Time;durP1;ratioP1;P1;durP2;ratioP2;P2;SDS_P1;SDS_P2;PMS_P1;PMS_P2;Temp;Humidity;BMP_temperature;BMP_pressure;BME280_temperature;BME280_humidity;BME280_pressure;Samples;Min_cycle;Max_cycle;Signal;HPM_P1;HPM_P2
2022/02/22 00:00:50;;;;;;;7.25;1.60;;;3.40;99.90;;;;;;5051652;28;20496;-71
2022/02/22 00:03:23;;;;;;;5.60;1.50;;;3.40;99.90;;;;;;5066609;28;20471;-70
2022/02/22 00:05:55;;;;;;;2.95;1.13;;;3.40;99.90;;;;;;5050001;28;20500;-71
2022/02/22 00:08:26;;;;;;;3.05;0.90;;;3.50;99.90;;;;;;5050523;28;20072;-70
2022/02/22 00:10:59;;;;;;;8.98;1.95;;;3.40;99.90;;;;;;5050360;28;20393;-72
2022/02/22 00:13:26;;;;;;;5.65;2.17;;;3.40;99.90;;;;;;5051049;28;20063;-71
2022/02/22 00:15:59;;;;;;;6.43;1.95;;;3.40;99.90;;;;;;5050515;28;20477;-71
2022/02/22 00:18:32;;;;;;;2.33;1.40;;;3.40;99.90;;;;;;5048494;28;20091;-71
2022/02/22 00:21:04;;;;;;;4.72;1.45;;;3.40;99.90;;;;;;5050716;28;20115;-72
2022/02/22 00:23:36;;;;;;;4.53;0.98;;;3.40;99.90;;;;;;5049404;28;20127;-71
2022/02/22 00:26:02;;;;;;;7.38;1.48;;;3.40;99.90;;;;;;5052848;28;20040;-71
2022/02/22 00:28:34;;;;;;;5.05;1.33;;;3.40;99.90;;;;;;5044429;28;20043;-71
2022/02/22 00:31:01;;;;;;;5.13;1.33;;;3.50;99.90;;;;;;5050926;28;20091;-71
2022/02/22 00:33:34;;;;;;;4.15;1.75;;;3.50;99.90;;;;;;5061464;28;20110;-71
2022/02/22 00:36:06;;;;;;;4.93;1.98;;;3.50;99.90;;;;;;5053240;28;20059;-71
2022/02/22 00:38:33;;;;;;;3.88;1.30;;;3.50;99.90;;;;;;5037267;28;20131;-71
2022/02/22 00:41:05;;;;;;;3.90;1.30;;;3.50;99.90;;;;;;5063087;28;20033;-71
2022/02/22 00:43:36;;;;;;;2.47;1.10;;;3.50;99.90;;;;;;5036708;28;20047;-71
2022/02/22 00:46:03;;;;;;;3.28;1.00;;;3.50;99.90;;;;;;5050593;28;20133;-71
2022/02/22 00:48:30;;;;;;;5.43;1.10;;;3.50;99.90;;;;;;5051848;28;20495;-70
2022/02/22 00:51:02;;;;;;;3.75;0.98;;;3.60;99.90;;;;;;5050644;28;20045;-70
2022/02/22 00:53:29;;;;;;;4.20;1.50;;;3.50;99.90;;;;;;5051348;28;20037;-71
2022/02/22 00:55:56;;;;;;;5.63;1.20;;;3.50;99.90;;;;;;5051622;28;20128;-71
2022/02/22 00:58:28;;;;;;;4.57;2.08;;;3.50;99.90;;;;;;5051730;28;20127;-70
2022/02/22 01:01:00;;;;;;;5.07;1.27;;;3.50;99.90;;;;;;5050437;28;20091;-70
2022/02/22 01:03:31;;;;;;;4.30;1.83;;;3.50;99.90;;;;;;5050075;28;20040;-71
2022/02/22 01:06:03;;;;;;;10.65;2.38;;;3.50;99.90;;;;;;5051468;28;20125;-70
2022/02/22 01:08:30;;;;;;;6.22;1.83;;;3.50;99.90;;;;;;5050461;28;20084;-70
2022/02/22 01:11:02;;;;;;;3.75;1.02;;;3.60;99.90;;;;;;5050330;28;20045;-71
2022/02/22 01:13:35;;;;;;;9.43;1.75;;;3.60;99.90;;;;;;5049751;28;20063;-70
2022/02/22 01:16:07;;;;;;;7.50;1.77;;;3.60;99.90;;;;;;5051410;28;20055;-71
2022/02/22 01:18:38;;;;;;;7.18;1.42;;;3.60;99.90;;;;;;5051327;28;20415;-70
2022/02/22 01:21:10;;;;;;;4.90;1.42;;;3.60;99.90;;;;;;5050074;28;20037;-71
2022/02/22 01:23:42;;;;;;;4.13;1.17;;;3.60;99.90;;;;;;5050020;28;20504;-71
2022/02/22 01:26:12;;;;;;;6.15;1.92;;;3.70;99.90;;;;;;5051386;28;20219;-70
2022/02/22 01:28:44;;;;;;;3.92;1.20;;;3.60;99.90;;;;;;5051668;28;20044;-71
2022/02/22 01:31:16;;;;;;;4.10;1.20;;;3.70;99.90;;;;;;5049972;28;20059;-71
2022/02/22 01:33:50;;;;;;;4.07;1.30;;;3.70;99.90;;;;;;5033916;28;20478;-71
2022/02/22 01:36:23;;;;;;;6.18;1.45;;;3.70;99.90;;;;;;5049909;28;20040;-70
2022/02/22 01:38:55;;;;;;;6.35;2.17;;;3.60;99.90;;;;;;5050075;28;20036;-71
2022/02/22 01:41:29;;;;;;;13.43;4.25;;;3.70;99.90;;;;;;5050505;28;20116;-70
2022/02/22 01:44:01;;;;;;;3.70;1.30;;;3.70;99.90;;;;;;5053491;28;20123;-70
2022/02/22 01:46:28;;;;;;;5.00;1.20;;;3.70;99.90;;;;;;5054921;28;20037;-71
2022/02/22 01:48:59;;;;;;;5.90;1.52;;;3.70;99.90;;;;;;5053470;28;20116;-71
2022/02/22 01:51:32;;;;;;;3.92;1.30;;;3.70;99.90;;;;;;5037726;28;20496;-71
2022/02/22 01:54:10;;;;;;;2.90;1.10;;;3.70;99.90;;;;;;5053417;28;20037;-71
2022/02/22 01:56:42;;;;;;;6.30;2.65;;;3.70;99.90;;;;;;5037666;28;20675;-71
2022/02/22 01:59:14;;;;;;;7.35;1.73;;;3.80;99.90;;;;;;5037395;28;20575;-71
2022/02/22 02:01:46;;;;;;;7.88;1.27;;;3.80;99.90;;;;;;5054192;28;20589;-71
2022/02/22 02:04:17;;;;;;;3.97;1.50;;;3.80;99.90;;;;;;5052715;28;20047;-71
2022/02/22 02:06:45;;;;;;;4.65;1.73;;;3.80;99.90;;;;;;5052550;28;20063;-70
2022/02/22 02:09:17;;;;;;;5.63;1.30;;;3.80;99.90;;;;;;5052909;28;20041;-71
2022/02/22 02:11:50;;;;;;;3.78;1.20;;;3.80;99.90;;;;;;5053992;28;20055;-70
2022/02/22 02:14:23;;;;;;;5.53;1.60;;;3.80;99.90;;;;;;5052379;28;20055;-71
2022/02/22 02:16:57;;;;;;;6.65;1.42;;;3.70;99.90;;;;;;5052495;28;20052;-71
2022/02/22 02:19:28;;;;;;;3.65;1.15;;;3.70;99.90;;;;;;5037464;28;20456;-70
2022/02/22 02:22:02;;;;;;;5.03;1.35;;;3.70;99.90;;;;;;5053904;28;20064;-71
2022/02/22 02:24:29;;;;;;;5.22;1.33;;;3.70;99.90;;;;;;5035664;28;20049;-71
2022/02/22 02:26:57;;;;;;;2.13;1.10;;;3.70;99.90;;;;;;5052372;28;20231;-71
2022/02/22 02:29:29;;;;;;;4.43;1.40;;;3.60;99.90;;;;;;5052613;28;20051;-71
2022/02/22 02:32:04;;;;;;;2.83;1.10;;;3.60;99.90;;;;;;5053557;28;20045;-71
2022/02/22 02:34:36;;;;;;;7.13;1.80;;;3.50;99.90;;;;;;5053432;28;20055;-71
2022/02/22 02:37:07;;;;;;;4.35;1.17;;;3.50;99.90;;;;;;5053557;28;20407;-71
2022/02/22 02:39:37;;;;;;;7.00;1.88;;;3.40;99.90;;;;;;5036096;28;20059;-70
2022/02/22 02:42:16;;;;;;;5.72;1.40;;;3.40;99.90;;;;;;5036226;28;20128;-71
2022/02/22 02:44:45;;;;;;;4.05;1.08;;;3.40;99.90;;;;;;5035549;28;20485;-70
2022/02/22 02:47:16;;;;;;;7.75;2.78;;;3.40;99.90;;;;;;5052035;28;20144;-71
2022/02/22 02:49:48;;;;;;;6.65;1.42;;;3.50;99.90;;;;;;5053257;28;20041;-71
2022/02/22 02:52:20;;;;;;;4.07;1.33;;;3.50;99.90;;;;;;5051913;28;20045;-72
2022/02/22 02:54:54;;;;;;;5.78;1.58;;;3.50;99.90;;;;;;5035457;28;20040;-71
2022/02/22 02:57:20;;;;;;;8.57;1.35;;;3.50;99.90;;;;;;5051944;28;20552;-71
2022/02/22 02:59:54;;;;;;;5.47;1.42;;;3.50;99.90;;;;;;5052648;28;20052;-71
2022/02/22 03:02:25;;;;;;;4.30;1.60;;;3.50;99.90;;;;;;5052803;28;20138;-71
2022/02/22 03:04:59;;;;;;;5.45;1.50;;;3.50;99.90;;;;;;5051877;28;20127;-71
2022/02/22 03:07:31;;;;;;;;;;;3.50;99.90;;;;;;5053505;28;20415;-70
2022/02/22 03:10:04;;;;;;;3.60;1.38;;;3.50;99.90;;;;;;5035737;28;19943;-71
2022/02/22 03:12:36;;;;;;;5.68;1.10;;;3.60;99.90;;;;;;5035495;28;20044;-71
2022/02/22 03:15:03;;;;;;;6.63;1.33;;;3.60;99.90;;;;;;5052926;28;20120;-71
2022/02/22 03:17:35;;;;;;;8.77;1.40;;;3.60;99.90;;;;;;5052771;28;20506;-71
2022/02/22 03:20:02;;;;;;;8.05;1.08;;;3.60;99.90;;;;;;5052710;28;20064;-71
2022/02/22 03:22:34;;;;;;;8.38;1.40;;;3.60;99.90;;;;;;5052504;28;20062;-71
2022/02/22 03:25:06;;;;;;;4.65;1.25;;;3.60;99.90;;;;;;5051643;28;20040;-71
2022/02/22 03:27:39;;;;;;;5.85;1.27;;;3.60;99.90;;;;;;5051507;28;20120;-71
2022/02/22 03:30:06;;;;;;;4.10;1.02;;;3.60;99.90;;;;;;5052555;28;20124;-71
2022/02/22 03:32:33;;;;;;;5.57;1.45;;;3.60;99.90;;;;;;5052295;28;20037;-71
2022/02/22 03:35:06;;;;;;;7.78;1.00;;;3.60;99.90;;;;;;5051308;28;20041;-71
2022/02/22 03:37:38;;;;;;;2.30;1.10;;;3.50;99.90;;;;;;5052595;28;20539;-71
2022/02/22 03:40:06;;;;;;;7.65;1.25;;;3.40;99.90;;;;;;5052419;28;20123;-71
2022/02/22 03:42:33;;;;;;;2.97;1.02;;;3.50;99.90;;;;;;5051758;28;20546;-71
2022/02/22 03:45:05;;;;;;;5.97;1.42;;;3.50;99.90;;;;;;5035163;28;20094;-70
2022/02/22 03:47:32;;;;;;;5.63;1.40;;;3.50;99.90;;;;;;5050877;28;20064;-71
2022/02/22 03:50:07;;;;;;;3.75;1.10;;;3.50;99.90;;;;;;5051748;28;20057;-71
2022/02/22 03:52:34;;;;;;;4.53;1.20;;;3.50;99.90;;;;;;5050868;28;20045;-71
2022/02/22 03:55:07;;;;;;;6.18;1.50;;;3.50;99.90;;;;;;5050728;28;20071;-70
2022/02/22 03:57:39;;;;;;;3.33;1.00;;;3.50;99.90;;;;;;5052295;28;20036;-70
2022/02/22 04:00:09;;;;;;;2.90;1.20;;;3.50;99.90;;;;;;5050647;28;20116;-71
2022/02/22 04:02:36;;;;;;;4.93;1.30;;;3.50;99.90;;;;;;5033921;28;20132;-71
2022/02/22 04:05:10;;;;;;;3.65;0.98;;;3.50;99.90;;;;;;5049347;28;20084;-70
2022/02/22 04:07:37;;;;;;;6.93;1.25;;;3.50;99.90;;;;;;5051567;28;20219;-71
2022/02/22 04:10:10;;;;;;;4.90;1.73;;;3.40;99.90;;;;;;5050523;28;20124;-70
2022/02/22 04:12:42;;;;;;;4.43;1.17;;;3.40;99.90;;;;;;5050477;28;20132;-71
2022/02/22 04:15:14;;;;;;;4.78;1.35;;;3.40;99.90;;;;;;5034769;28;20514;-70
2022/02/22 04:17:46;;;;;;;5.63;1.42;;;3.40;99.90;;;;;;5051730;28;20047;-71
2022/02/22 04:20:18;;;;;;;2.92;1.00;;;3.40;99.90;;;;;;5050835;28;20055;-71
2022/02/22 04:22:50;;;;;;;5.13;1.10;;;3.50;99.90;;;;;;5050526;28;20079;-71
2022/02/22 04:25:17;;;;;;;4.95;1.38;;;3.50;99.90;;;;;;5051060;28;20037;-70
2022/02/22 04:27:48;;;;;;;6.22;1.30;;;3.50;99.90;;;;;;5052043;28;20041;-70
2022/02/22 04:30:20;;;;;;;2.45;1.00;;;3.50;99.90;;;;;;5051013;28;20496;-70
2022/02/22 04:32:47;;;;;;;3.97;1.50;;;3.50;99.90;;;;;;5051688;28;20579;-70
2022/02/22 04:35:14;;;;;;;5.45;1.73;;;3.50;99.90;;;;;;5051995;28;20123;-70
2022/02/22 04:37:45;;;;;;;6.80;2.13;;;3.50;99.90;;;;;;5050730;28;20048;-70
2022/02/22 04:40:17;;;;;;;8.80;1.20;;;3.50;99.90;;;;;;5051951;28;20052;-70
2022/02/22 04:42:48;;;;;;;5.72;1.10;;;3.50;99.90;;;;;;5050249;28;20047;-70
2022/02/22 04:45:20;;;;;;;3.47;1.60;;;3.50;99.90;;;;;;5051931;28;20120;-70
2022/02/22 04:47:47;;;;;;;7.05;1.35;;;3.60;99.90;;;;;;5050634;28;20037;-71
2022/02/22 04:50:21;;;;;;;3.88;1.27;;;3.60;99.90;;;;;;5051580;28;20048;-70
2022/02/22 04:52:53;;;;;;;2.97;1.55;;;3.50;99.90;;;;;;5051013;28;20052;-70
2022/02/22 04:55:24;;;;;;;5.03;1.52;;;3.60;99.90;;;;;;5049713;28;20408;-70
2022/02/22 04:57:56;;;;;;;6.00;1.40;;;3.50;99.90;;;;;;5050831;28;20127;-71
2022/02/22 05:00:28;;;;;;;4.03;1.65;;;3.40;99.90;;;;;;5050815;28;20041;-70
2022/02/22 05:02:55;;;;;;;3.40;1.95;;;3.30;99.90;;;;;;5049170;28;20049;-70
2022/02/22 05:05:22;;;;;;;3.75;1.63;;;3.30;99.90;;;;;;5050907;28;20049;-71
2022/02/22 05:07:54;;;;;;;6.20;1.40;;;3.20;99.90;;;;;;5039725;28;20551;-69
2022/02/22 05:10:20;;;;;;;6.00;0.95;;;3.20;99.90;;;;;;5032108;28;20077;-71
2022/02/22 05:12:53;;;;;;;6.97;1.58;;;3.20;99.90;;;;;;5049624;28;20124;-70
2022/02/22 05:15:25;;;;;;;7.25;1.58;;;3.20;99.90;;;;;;5049039;28;20148;-71
2022/02/22 05:17:57;;;;;;;4.13;1.05;;;3.10;99.90;;;;;;5056455;28;20451;-71
2022/02/22 05:20:24;;;;;;;4.78;1.30;;;3.00;99.90;;;;;;5054710;28;20381;-71
2022/02/22 05:22:56;;;;;;;3.03;1.30;;;2.80;99.90;;;;;;5061096;28;20043;-70
2022/02/22 05:25:29;;;;;;;2.33;0.90;;;2.80;99.90;;;;;;5042290;28;20037;-70
2022/02/22 05:27:55;;;;;;;6.10;1.42;;;2.80;99.90;;;;;;5056650;28;20102;-70
2022/02/22 05:30:27;;;;;;;5.97;1.98;;;2.80;99.90;;;;;;5038985;28;20060;-70
2022/02/22 05:32:59;;;;;;;3.40;1.65;;;2.70;99.90;;;;;;5033189;28;20034;-71
2022/02/22 05:35:31;;;;;;;7.88;1.73;;;2.70;99.90;;;;;;5033274;28;20076;-71
2022/02/22 05:37:58;;;;;;;3.70;1.63;;;2.60;99.90;;;;;;5033098;28;20144;-70
2022/02/22 05:40:25;;;;;;;4.32;1.88;;;2.60;99.90;;;;;;5049385;28;20584;-71
2022/02/22 05:42:51;;;;;;;3.28;1.38;;;2.50;99.90;;;;;;5032312;28;20046;-71
2022/02/22 05:45:24;;;;;;;7.82;2.10;;;2.60;99.90;;;;;;5032846;28;20073;-70
2022/02/22 05:47:55;;;;;;;13.25;2.53;;;2.60;99.90;;;;;;5036337;28;20052;-70
2022/02/22 05:50:27;;;;;;;4.50;1.48;;;2.50;99.90;;;;;;5039845;28;20041;-71
2022/02/22 05:52:59;;;;;;;5.50;1.58;;;2.50;99.90;;;;;;5049474;28;20033;-70
2022/02/22 05:55:32;;;;;;;4.93;1.50;;;2.50;99.90;;;;;;5056627;28;20392;-70
2022/02/22 05:58:04;;;;;;;6.45;2.70;;;2.50;99.90;;;;;;5073682;28;20051;-70
2022/02/22 06:00:36;;;;;;;5.15;1.38;;;2.50;99.90;;;;;;5073694;28;20051;-71
2022/02/22 06:03:07;;;;;;;5.53;1.25;;;2.50;99.90;;;;;;5067004;28;20111;-71
2022/02/22 06:05:39;;;;;;;9.32;1.58;;;2.50;99.90;;;;;;5059718;28;20526;-70
2022/02/22 06:08:11;;;;;;;4.32;1.52;;;2.60;99.90;;;;;;5049680;28;20041;-71
2022/02/22 06:10:43;;;;;;;3.58;1.40;;;2.60;99.90;;;;;;5046881;28;20045;-71
2022/02/22 06:13:15;;;;;;;3.38;1.13;;;2.50;99.90;;;;;;5051520;28;20046;-71
2022/02/22 06:15:47;;;;;;;4.88;1.25;;;2.40;99.90;;;;;;5045652;28;20044;-71
2022/02/22 06:18:19;;;;;;;5.35;2.60;;;2.50;99.90;;;;;;5062330;28;20091;-70
2022/02/22 06:20:51;;;;;;;5.35;1.55;;;2.50;99.90;;;;;;5049061;28;20463;-71
2022/02/22 06:23:18;;;;;;;5.70;2.40;;;2.60;99.90;;;;;;5066693;28;20032;-71
2022/02/22 06:25:44;;;;;;;16.38;5.38;;;2.70;99.90;;;;;;5050159;28;20136;-71
2022/02/22 06:28:16;;;;;;;7.07;3.50;;;2.80;99.90;;;;;;5060559;28;20132;-72
2022/02/22 06:30:48;;;;;;;6.22;2.25;;;2.80;99.90;;;;;;5054276;28;20495;-70
2022/02/22 06:33:19;;;;;;;23.17;7.85;;;2.80;99.90;;;;;;5071077;28;20135;-70
2022/02/22 06:35:46;;;;;;;25.15;11.63;;;2.90;99.90;;;;;;5069926;28;20040;-71
2022/02/22 06:38:18;;;;;;;6.90;2.90;;;2.90;99.90;;;;;;5051356;28;20040;-70
2022/02/22 06:40:45;;;;;;;7.32;2.85;;;3.00;99.90;;;;;;5052091;28;20514;-71
2022/02/22 06:43:12;;;;;;;5.55;1.40;;;3.10;99.90;;;;;;5070160;28;20518;-71
2022/02/22 06:45:44;;;;;;;10.70;2.65;;;3.10;99.90;;;;;;5054754;28;20033;-70
2022/02/22 06:48:14;;;;;;;6.50;2.25;;;3.10;99.90;;;;;;5050446;28;20526;-71
2022/02/22 06:50:46;;;;;;;6.40;1.92;;;3.10;99.90;;;;;;5046114;28;20043;-70
2022/02/22 06:53:18;;;;;;;9.25;2.25;;;3.10;99.90;;;;;;5047543;28;20144;-70
2022/02/22 06:55:46;;;;;;;6.35;2.08;;;3.10;99.90;;;;;;5050822;28;20041;-70
2022/02/22 06:58:13;;;;;;;9.25;3.47;;;3.00;99.90;;;;;;5051009;28;20148;-73
2022/02/22 07:00:43;;;;;;;10.90;3.33;;;3.00;99.90;;;;;;5048481;28;20485;-70
2022/02/22 07:03:15;;;;;;;11.65;3.78;;;3.00;99.90;;;;;;5050743;28;20614;-71
2022/02/22 07:05:41;;;;;;;8.73;3.92;;;3.00;99.90;;;;;;5050084;28;20463;-70
2022/02/22 07:08:08;;;;;;;11.45;3.20;;;3.00;99.90;;;;;;5051236;28;20045;-70
2022/02/22 07:10:40;;;;;;;3.53;1.50;;;2.90;99.90;;;;;;5050669;28;20456;-70
2022/02/22 07:13:12;;;;;;;7.72;1.58;;;2.90;99.90;;;;;;5049542;28;20127;-71
2022/02/22 07:15:44;;;;;;;5.18;1.60;;;2.90;99.90;;;;;;5050797;28;20128;-71
2022/02/22 07:18:16;;;;;;;7.50;1.35;;;2.70;99.90;;;;;;5050372;28;20128;-71
2022/02/22 07:20:47;;;;;;;4.68;1.80;;;2.70;99.90;;;;;;5047849;28;20044;-71
2022/02/22 07:23:14;;;;;;;6.05;1.83;;;2.70;99.90;;;;;;5066790;28;20124;-71
2022/02/22 07:25:46;;;;;;;5.32;1.50;;;2.70;99.90;;;;;;5033426;28;20461;-71
2022/02/22 07:28:18;;;;;;;7.03;1.35;;;2.80;99.90;;;;;;5047669;28;20066;-70
2022/02/22 07:30:50;;;;;;;3.75;1.17;;;2.90;99.90;;;;;;5053142;28;20041;-71
2022/02/22 07:33:17;;;;;;;5.70;1.73;;;3.00;99.90;;;;;;5067450;28;20144;-71
2022/02/22 07:35:49;;;;;;;3.85;1.55;;;3.10;99.90;;;;;;5051353;28;20071;-71
2022/02/22 07:38:16;;;;;;;4.35;1.70;;;3.00;99.90;;;;;;5050301;28;20055;-71
2022/02/22 07:40:47;;;;;;;11.15;1.90;;;3.10;99.90;;;;;;5051503;28;20403;-71
2022/02/22 07:43:19;;;;;;;6.35;1.80;;;3.10;99.90;;;;;;5050886;28;20040;-71
2022/02/22 07:45:51;;;;;;;7.88;1.45;;;3.10;99.90;;;;;;5051529;28;20041;-71
2022/02/22 07:48:23;;;;;;;5.68;1.90;;;3.10;99.90;;;;;;5051227;28;20047;-70
2022/02/22 07:50:54;;;;;;;8.75;1.85;;;3.20;99.90;;;;;;5051255;28;20468;-71
2022/02/22 07:53:21;;;;;;;5.30;1.52;;;3.20;99.90;;;;;;5049518;28;20056;-70
2022/02/22 07:55:48;;;;;;;8.15;1.55;;;3.20;99.90;;;;;;5051433;28;20752;-70
2022/02/22 07:58:16;;;;;;;4.07;1.95;;;3.30;99.90;;;;;;5051356;28;20041;-71
2022/02/22 08:00:47;;;;;;;8.90;1.77;;;3.30;99.90;;;;;;5050067;28;20061;-70
2022/02/22 08:03:19;;;;;;;3.95;1.77;;;3.30;99.90;;;;;;5048066;28;20075;-70
2022/02/22 08:05:46;;;;;;;8.07;2.47;;;3.30;99.90;;;;;;5051141;28;20116;-71
2022/02/22 08:08:17;;;;;;;7.22;1.77;;;3.40;99.90;;;;;;5048964;28;20041;-71
2022/02/22 08:10:44;;;;;;;4.32;1.67;;;3.40;99.90;;;;;;5049623;28;20073;-71
2022/02/22 08:13:17;;;;;;;8.38;2.28;;;3.50;99.90;;;;;;5049072;28;20052;-71
2022/02/22 08:15:49;;;;;;;7.93;1.88;;;3.50;99.90;;;;;;5050231;28;20059;-70
2022/02/22 08:18:16;;;;;;;7.53;1.70;;;3.60;99.90;;;;;;5050886;28;20075;-71
2022/02/22 08:20:43;;;;;;;4.75;1.77;;;3.60;99.90;;;;;;5052078;28;20044;-70
2022/02/22 08:23:15;;;;;;;3.55;1.90;;;3.70;99.90;;;;;;5048813;28;20560;-71
2022/02/22 08:25:42;;;;;;;15.00;4.03;;;3.70;99.90;;;;;;5050617;28;20047;-70
2022/02/22 08:28:13;;;;;;;6.80;2.40;;;3.70;99.90;;;;;;5051026;28;20032;-70
2022/02/22 08:30:45;;;;;;;10.10;2.03;;;3.80;99.90;;;;;;5051117;28;20052;-71
2022/02/22 08:33:17;;;;;;;8.10;2.60;;;3.90;99.90;;;;;;5042640;28;20052;-71
2022/02/22 08:35:49;;;;;;;8.95;4.32;;;4.00;99.90;;;;;;5049101;28;20053;-71
2022/02/22 08:38:21;;;;;;;8.80;2.47;;;4.10;99.90;;;;;;5067160;28;20055;-70
2022/02/22 08:40:52;;;;;;;6.38;2.28;;;4.20;99.90;;;;;;5049316;28;20049;-70
2022/02/22 08:43:24;;;;;;;6.45;2.20;;;4.10;99.90;;;;;;5048836;28;20472;-71
2022/02/22 08:45:56;;;;;;;9.52;1.73;;;4.20;99.90;;;;;;5050890;28;20072;-71
2022/02/22 08:48:28;;;;;;;5.40;1.73;;;4.30;99.90;;;;;;5048452;28;20036;-70
2022/02/22 08:51:00;;;;;;;5.55;1.75;;;4.40;99.90;;;;;;5048873;28;20228;-70
2022/02/22 08:53:31;;;;;;;7.75;1.88;;;4.50;99.90;;;;;;5049504;28;20128;-69
2022/02/22 08:56:00;;;;;;;6.88;2.20;;;4.50;99.90;;;;;;5050109;28;20508;-71
2022/02/22 08:58:28;;;;;;;6.35;2.30;;;4.40;99.90;;;;;;5066073;28;20057;-70
2022/02/22 09:00:59;;;;;;;6.15;1.83;;;4.40;99.90;;;;;;5033099;28;20044;-71
2022/02/22 09:03:32;;;;;;;8.75;2.10;;;4.40;99.90;;;;;;5048400;28;20407;-70
2022/02/22 09:06:01;;;;;;;6.50;1.83;;;4.40;99.90;;;;;;5049385;28;20136;-70
2022/02/22 09:08:33;;;;;;;5.47;1.90;;;4.30;99.90;;;;;;5065039;28;20115;-70
2022/02/22 09:11:00;;;;;;;6.18;2.03;;;4.30;99.90;;;;;;5041460;28;20574;-71
2022/02/22 09:13:32;;;;;;;6.72;1.98;;;4.30;99.90;;;;;;5049580;28;20040;-72
2022/02/22 09:15:58;;;;;;;7.47;2.53;;;4.40;99.90;;;;;;5047040;28;20068;-71
2022/02/22 09:18:30;;;;;;;7.40;1.95;;;4.50;99.90;;;;;;5054010;28;20059;-71
2022/02/22 09:21:02;;;;;;;6.07;1.65;;;4.60;99.90;;;;;;5049001;28;20045;-71
2022/02/22 09:23:29;;;;;;;6.05;2.75;;;4.60;99.90;;;;;;5052835;28;20044;-71
2022/02/22 09:25:55;;;;;;;3.97;1.75;;;4.70;99.90;;;;;;5049978;28;20041;-71
2022/02/22 09:28:27;;;;;;;5.85;1.65;;;4.90;99.90;;;;;;5033251;28;20067;-70
2022/02/22 09:30:59;;;;;;;4.63;2.08;;;5.00;99.90;;;;;;5049329;28;20091;-71
2022/02/22 09:33:31;;;;;;;3.80;1.35;;;5.20;99.90;;;;;;5054981;28;20044;-71
2022/02/22 09:36:03;;;;;;;4.90;1.55;;;5.40;99.90;;;;;;5055931;28;20037;-70
2022/02/22 09:38:35;;;;;;;6.00;1.65;;;5.30;99.90;;;;;;5050056;28;20410;-71
2022/02/22 09:41:08;;;;;;;6.47;2.03;;;5.20;99.90;;;;;;5048767;28;20140;-71
2022/02/22 09:43:40;;;;;;;5.90;1.58;;;5.10;99.90;;;;;;5049564;28;20037;-70
2022/02/22 09:46:09;;;;;;;3.05;1.73;;;5.10;99.90;;;;;;5049041;28;20485;-70
2022/02/22 09:48:37;;;;;;;6.53;2.15;;;5.10;99.90;;;;;;5048928;28;20127;-71
2022/02/22 09:51:09;;;;;;;5.25;1.45;;;5.30;99.90;;;;;;5048453;28;20555;-71
2022/02/22 09:53:37;;;;;;;5.90;1.83;;;5.40;99.90;;;;;;5049441;28;20462;-71
2022/02/22 09:56:09;;;;;;;4.95;2.10;;;5.40;99.90;;;;;;5050077;28;20069;-70
2022/02/22 09:58:41;;;;;;;3.78;1.67;;;5.30;99.90;;;;;;5030107;28;20048;-71
2022/02/22 10:01:13;;;;;;;6.45;1.30;;;5.40;99.90;;;;;;5045217;28;20488;-71
2022/02/22 10:03:59;;;;;;;5.75;1.90;;;5.50;99.90;;;;;;5066880;28;20077;-71
2022/02/22 10:06:31;;;;;;;4.53;1.70;;;5.50;99.90;;;;;;5053552;28;20112;-71
2022/02/22 10:09:04;;;;;;;9.20;1.90;;;5.50;99.90;;;;;;5053709;28;20037;-71
2022/02/22 10:11:50;;;;;;;8.48;1.60;;;5.50;99.90;;;;;;5052071;28;20040;-71
2022/02/22 10:14:26;;;;;;;4.25;1.35;;;5.50;99.90;;;;;;5051684;28;20564;-71
2022/02/22 10:16:58;;;;;;;5.70;1.42;;;5.60;99.90;;;;;;5053312;28;20124;-71
2022/02/22 10:19:34;;;;;;;6.00;1.48;;;5.80;99.90;;;;;;5036130;28;20048;-71
2022/02/22 10:22:08;;;;;;;5.72;1.40;;;5.80;99.90;;;;;;5051285;28;20102;-70
2022/02/22 10:24:40;;;;;;;;;;;5.80;99.90;;;;;;5031412;28;20140;-70
2022/02/22 10:27:11;;;;;;;4.53;1.30;;;5.80;99.90;;;;;;5031833;28;19921;-71
2022/02/22 10:29:43;;;;;;;7.07;1.40;;;5.80;99.90;;;;;;5030604;28;20029;-70
2022/02/22 10:32:16;;;;;;;6.57;1.33;;;5.80;99.90;;;;;;5068276;28;20046;-71
2022/02/22 10:34:48;;;;;;;5.82;2.33;;;5.90;99.90;;;;;;5052570;28;20067;-71
2022/02/22 10:37:31;;;;;;;8.55;1.40;;;6.00;99.90;;;;;;5052810;28;20041;-71
2022/02/22 10:40:03;;;;;;;4.63;1.52;;;6.00;99.90;;;;;;5051806;28;20040;-71
2022/02/22 10:42:36;;;;;;;5.10;1.42;;;6.00;99.90;;;;;;5052231;28;20112;-70
2022/02/22 10:45:10;;;;;;;4.78;1.20;;;6.00;99.90;;;;;;5052250;28;20048;-70
2022/02/22 10:47:41;;;;;;;5.40;1.20;;;6.00;99.90;;;;;;5052409;28;20048;-71
2022/02/22 10:50:09;;;;;;;7.43;1.58;;;6.10;99.90;;;;;;5047645;28;20103;-70
2022/02/22 10:52:36;;;;;;;3.72;1.15;;;6.10;99.90;;;;;;5046923;28;20117;-70
2022/02/22 10:55:08;;;;;;;3.42;1.55;;;6.10;99.90;;;;;;5051667;28;20048;-71
2022/02/22 10:57:41;;;;;;;5.05;1.33;;;6.10;99.90;;;;;;5051372;28;20112;-71
2022/02/22 11:00:08;;;;;;;6.35;1.35;;;6.00;99.90;;;;;;5052659;28;20439;-70
2022/02/22 11:02:44;;;;;;;3.55;1.40;;;6.00;99.90;;;;;;5051773;28;20184;-71
2022/02/22 11:05:16;;;;;;;3.47;1.13;;;6.00;99.90;;;;;;5052243;28;20496;-70
2022/02/22 11:07:52;;;;;;;4.28;1.23;;;6.00;99.90;;;;;;5042176;28;20039;-71
2022/02/22 11:10:24;;;;;;;5.78;1.10;;;6.00;99.90;;;;;;5066448;28;20045;-71
2022/02/22 11:13:01;;;;;;;6.38;1.45;;;6.00;99.90;;;;;;5050586;28;20128;-71
2022/02/22 11:15:35;;;;;;;5.00;1.63;;;5.90;99.90;;;;;;5043166;28;20564;-70
2022/02/22 11:18:18;;;;;;;4.40;1.77;;;5.80;99.90;;;;;;5052284;28;20128;-70
2022/02/22 11:20:51;;;;;;;4.28;1.50;;;5.70;99.90;;;;;;5050705;28;20037;-71
2022/02/22 11:23:28;;;;;;;7.90;1.80;;;5.70;99.90;;;;;;5065644;28;20048;-70
2022/02/22 11:26:16;;;;;;;6.50;2.10;;;5.70;99.90;;;;;;5051621;28;20411;-71
2022/02/22 11:28:52;;;;;;;6.82;3.33;;;5.70;99.90;;;;;;5053968;28;20041;-72
2022/02/22 11:31:27;;;;;;;12.95;2.88;;;5.90;99.90;;;;;;5050834;28;20098;-71
2022/02/22 11:34:04;;;;;;;5.75;2.45;;;6.00;99.90;;;;;;5059411;28;20043;-71
2022/02/22 11:36:39;;;;;;;4.90;2.08;;;6.00;99.90;;;;;;5058773;28;20048;-70
2022/02/22 11:39:20;;;;;;;4.55;1.63;;;6.00;99.90;;;;;;5051484;28;20045;-70
2022/02/22 11:41:52;;;;;;;4.78;1.65;;;6.00;99.90;;;;;;5050329;28;20041;-71
2022/02/22 11:44:26;;;;;;;8.60;3.08;;;6.10;99.90;;;;;;5047186;28;20033;-71
2022/02/22 11:46:56;;;;;;;3.22;1.67;;;6.20;99.90;;;;;;5053399;28;20048;-70
2022/02/22 11:49:31;;;;;;;6.95;1.98;;;6.30;99.90;;;;;;5059329;28;20215;-71
2022/02/22 11:52:11;;;;;;;4.53;2.08;;;6.40;99.90;;;;;;5047318;28;20042;-71
2022/02/22 11:54:44;;;;;;;5.97;1.95;;;6.50;99.90;;;;;;5048736;28;20079;-71
2022/02/22 11:57:14;;;;;;;5.85;1.73;;;6.60;99.90;;;;;;5045269;28;20116;-71
2022/02/22 11:59:52;;;;;;;6.93;1.73;;;6.70;99.90;;;;;;5050160;28;20140;-70
2022/02/22 12:02:26;;;;;;;7.65;2.17;;;6.70;99.90;;;;;;5066044;28;20512;-72
2022/02/22 12:04:53;;;;;;;6.03;2.03;;;6.80;99.90;;;;;;5057893;28;20061;-71
2022/02/22 12:07:30;;;;;;;5.00;1.45;;;7.10;99.90;;;;;;5060325;28;20047;-71
2022/02/22 12:10:07;;;;;;;5.32;1.50;;;7.40;99.90;;;;;;5059503;28;20064;-70
2022/02/22 12:12:39;;;;;;;7.90;1.90;;;7.50;99.90;;;;;;5049234;28;20144;-70
2022/02/22 12:15:11;;;;;;;4.75;1.52;;;7.60;99.90;;;;;;5049871;28;20131;-70
2022/02/22 12:17:44;;;;;;;6.90;1.85;;;7.50;99.90;;;;;;5050268;28;20524;-70
2022/02/22 12:20:14;;;;;;;7.10;1.65;;;7.50;99.90;;;;;;5051126;28;20045;-70
2022/02/22 12:22:48;;;;;;;3.25;1.35;;;7.50;99.90;;;;;;5048004;28;20053;-71
2022/02/22 12:25:25;;;;;;;4.38;1.55;;;7.40;99.90;;;;;;5055134;28;20049;-71
2022/02/22 12:28:05;;;;;;;4.05;1.20;;;7.40;99.90;;;;;;5046774;28;20041;-70
2022/02/22 12:30:38;;;;;;;6.85;1.50;;;7.40;99.90;;;;;;5029924;28;20057;-71
2022/02/22 12:33:10;;;;;;;3.75;1.42;;;7.20;99.90;;;;;;5043961;28;20107;-71
2022/02/22 12:35:45;;;;;;;5.38;1.30;;;7.10;99.90;;;;;;5061360;28;20053;-71
2022/02/22 12:38:25;;;;;;;4.57;1.20;;;7.10;99.90;;;;;;5048674;28;20037;-71
2022/02/22 12:40:58;;;;;;;3.67;1.27;;;7.20;99.90;;;;;;5048676;28;20039;-71
2022/02/22 12:43:25;;;;;;;3.00;0.93;;;7.30;99.90;;;;;;5049451;28;20294;-71
2022/02/22 12:45:57;;;;;;;2.85;1.30;;;7.60;99.90;;;;;;5048761;28;20128;-70
2022/02/22 12:48:29;;;;;;;4.63;1.20;;;7.70;99.90;;;;;;5044833;28;20037;-71
2022/02/22 12:51:01;;;;;;;3.33;1.20;;;7.70;99.90;;;;;;5046309;28;20047;-71
2022/02/22 12:53:33;;;;;;;3.60;1.15;;;7.50;99.90;;;;;;5052213;28;20044;-71
2022/02/22 12:56:05;;;;;;;2.22;0.85;;;7.40;99.90;;;;;;5032109;28;20049;-71
2022/02/22 12:58:37;;;;;;;3.17;1.00;;;7.10;99.90;;;;;;5047654;28;20069;-71
2022/02/22 13:01:14;;;;;;;2.63;1.52;;;7.00;99.90;;;;;;5054827;28;20045;-71
2022/02/22 13:03:49;;;;;;;3.33;1.35;;;7.10;99.90;;;;;;5077963;28;20525;-71
2022/02/22 13:06:22;;;;;;;3.30;1.15;;;7.00;99.90;;;;;;5064206;28;20055;-71
2022/02/22 13:08:55;;;;;;;2.83;1.00;;;6.90;99.90;;;;;;5049011;28;20052;-71
2022/02/22 13:11:35;;;;;;;3.45;1.40;;;6.80;99.90;;;;;;5048118;28;20045;-71
2022/02/22 13:14:09;;;;;;;2.20;1.17;;;6.60;99.90;;;;;;5051313;28;20040;-71
2022/02/22 13:16:58;;;;;;;3.80;1.40;;;6.40;99.90;;;;;;5062568;28;20045;-72
2022/02/22 13:19:35;;;;;;;3.08;1.08;;;6.00;99.90;;;;;;5032180;28;20145;-72